sensor_id;sensor_type;location;lat;lon;timestamp;pressure;altitude;pressure_sealevel;temperature;humidity
30343;BME280;17145;49.902;8.680;'2023-01-31 00:59:07';100980;;;3;52
30343;BME280;17145;49.902;8.680;'2023-01-31 01:01:37';100980;;;4;52
30343;BME280;17145;49.902;8.680;'2023-01-31 01:04:07';100980;;;3;52
30343;BME280;17145;49.902;8.680;'2023-01-31 01:06:36';100980;;;4;52
30343;BME280;17145;49.902;8.680;'2023-01-31 01:09:05';100980;;;3;52
30343;BME280;17145;49.902;8.680;'2023-01-31 01:11:33';100970;;;3;52
30343;BME280;17145;49.902;8.680;'2023-01-31 01:14:02';100960;;;3;52
30343;BME280;17145;49.902;8.680;'2023-01-31 01:16:30';100960;;;3;52
30343;BME280;17145;49.902;8.680;'2023-01-31 01:18:58';100960;;;4;52
30343;BME280;17145;49.902;8.680;'2023-01-31 01:21:27';100970;;;3;52
30343;BME280;17145;49.902;8.680;'2023-01-31 01:23:55';100960;;;4;52
30343;BME280;17145;49.902;8.680;'2023-01-31 01:26:25';100960;;;4;53
30343;BME280;17145;49.902;8.680;'2023-01-31 01:28:54';100960;;;3;53
30343;BME280;17145;49.902;8.680;'2023-01-31 01:31:23';100960;;;3;53
30343;BME280;17145;49.902;8.680;'2023-01-31 01:33:52';100960;;;3;53
30343;BME280;17145;49.902;8.680;'2023-01-31 01:36:23';100960;;;3;53
30343;BME280;17145;49.902;8.680;'2023-01-31 01:38:52';100960;;;3;53
30343;BME280;17145;49.902;8.680;'2023-01-31 01:41:21';100960;;;3;54
30343;BME280;17145;49.902;8.680;'2023-01-31 01:43:49';100960;;;3;53
30343;BME280;17145;49.902;8.680;'2023-01-31 01:46:17';100960;;;3;53
30343;BME280;17145;49.902;8.680;'2023-01-31 01:48:44';100960;;;3;53
30343;BME280;17145;49.902;8.680;'2023-01-31 01:51:12';100950;;;4;53
30343;BME280;17145;49.902;8.680;'2023-01-31 01:53:40';100960;;;3;52
30343;BME280;17145;49.902;8.680;'2023-01-31 01:56:12';100960;;;3;52
30343;BME280;17145;49.902;8.680;'2023-01-31 01:58:40';100960;;;3;52
30343;BME280;17145;49.902;8.680;'2023-01-31 02:01:09';100960;;;3;52
30343;BME280;17145;49.902;8.680;'2023-01-31 02:03:38';100970;;;4;52
30343;BME280;17145;49.902;8.680;'2023-01-31 02:06:06';100960;;;3;52
30343;BME280;17145;49.902;8.680;'2023-01-31 02:08:35';100960;;;3;52
30343;BME280;17145;49.902;8.680;'2023-01-31 02:11:05';100970;;;3;52
30343;BME280;17145;49.902;8.680;'2023-01-31 02:13:34';100970;;;4;52
30343;BME280;17145;49.902;8.680;'2023-01-31 02:16:05';100970;;;4;52
30343;BME280;17145;49.902;8.680;'2023-01-31 02:18:33';100970;;;4;52
30343;BME280;17145;49.902;8.680;'2023-01-31 02:21:06';100970;;;4;52
30343;BME280;17145;49.902;8.680;'2023-01-31 02:23:34';100970;;;4;52
30343;BME280;17145;49.902;8.680;'2023-01-31 02:26:01';100970;;;3;52
30343;BME280;17145;49.902;8.680;'2023-01-31 02:28:32';100970;;;3;52
30343;BME280;17145;49.902;8.680;'2023-01-31 02:31:04';100980;;;3;52
30343;BME280;17145;49.902;8.680;'2023-01-31 02:33:32';100990;;;3;53
30343;BME280;17145;49.902;8.680;'2023-01-31 02:36:00';100990;;;3;53
30343;BME280;17145;49.902;8.680;'2023-01-31 02:38:28';100990;;;4;52
30343;BME280;17145;49.902;8.680;'2023-01-31 02:43:37';100990;;;3;53
30343;BME280;17145;49.902;8.680;'2023-01-31 02:46:06';100990;;;3;53
30343;BME280;17145;49.902;8.680;'2023-01-31 02:48:33';100990;;;3;53
30343;BME280;17145;49.902;8.680;'2023-01-31 02:51:04';100990;;;3;52
30343;BME280;17145;49.902;8.680;'2023-01-31 02:53:35';100990;;;3;53
30343;BME280;17145;49.902;8.680;'2023-01-31 02:56:07';100990;;;3;53
30343;BME280;17145;49.902;8.680;'2023-01-31 02:58:39';100990;;;3;53
30343;BME280;17145;49.902;8.680;'2023-01-31 03:01:07';100990;;;3;52
30343;BME280;17145;49.902;8.680;'2023-01-31 03:03:35';100990;;;3;52
30343;BME280;17145;49.902;8.680;'2023-01-31 03:06:05';100990;;;3;53
30343;BME280;17145;49.902;8.680;'2023-01-31 03:08:35';101000;;;3;52
30343;BME280;17145;49.902;8.680;'2023-01-31 03:11:08';101000;;;3;53
30343;BME280;17145;49.902;8.680;'2023-01-31 03:13:38';101000;;;3;52
30343;BME280;17145;49.902;8.680;'2023-01-31 03:16:07';101000;;;4;52
30343;BME280;17145;49.902;8.680;'2023-01-31 03:18:34';101000;;;3;52
30343;BME280;17145;49.902;8.680;'2023-01-31 03:21:20';101000;;;3;52
30343;BME280;17145;49.902;8.680;'2023-01-31 03:24:07';101000;;;3;52
30343;BME280;17145;49.902;8.680;'2023-01-31 03:26:54';101000;;;3;52
30343;BME280;17145;49.902;8.680;'2023-01-31 03:29:39';101000;;;3;53
30343;BME280;17145;49.902;8.680;'2023-01-31 03:32:25';101000;;;3;53
30343;BME280;17145;49.902;8.680;'2023-01-31 03:35:02';101000;;;3;52
30343;BME280;17145;49.902;8.680;'2023-01-31 03:37:40';100990;;;3;52
30343;BME280;17145;49.902;8.680;'2023-01-31 03:40:15';100990;;;3;52
30343;BME280;17145;49.902;8.680;'2023-01-31 03:42:52';100990;;;3;52
30343;BME280;17145;49.902;8.680;'2023-01-31 03:45:28';100990;;;3;52
30343;BME280;17145;49.902;8.680;'2023-01-31 03:48:07';100980;;;3;52
30343;BME280;17145;49.902;8.680;'2023-01-31 03:50:40';100980;;;3;52
30343;BME280;17145;49.902;8.680;'2023-01-31 03:53:13';100980;;;3;52
30343;BME280;17145;49.902;8.680;'2023-01-31 03:55:48';100980;;;3;52
30343;BME280;17145;49.902;8.680;'2023-01-31 03:58:18';100990;;;3;52
30343;BME280;17145;49.902;8.680;'2023-01-31 04:00:47';100990;;;3;52
30343;BME280;17145;49.902;8.680;'2023-01-31 04:06:01';100990;;;3;52
30343;BME280;17145;49.902;8.680;'2023-01-31 04:08:28';101000;;;3;52
30343;BME280;17145;49.902;8.680;'2023-01-31 04:11:01';100990;;;3;52
30343;BME280;17145;49.902;8.680;'2023-01-31 04:13:39';100990;;;3;52
30343;BME280;17145;49.902;8.680;'2023-01-31 04:16:19';100990;;;3;52
30343;BME280;17145;49.902;8.680;'2023-01-31 04:18:56';100990;;;3;52
30343;BME280;17145;49.902;8.680;'2023-01-31 04:21:29';101010;;;3;52
30343;BME280;17145;49.902;8.680;'2023-01-31 04:23:58';101010;;;3;52
30343;BME280;17145;49.902;8.680;'2023-01-31 04:26:27';101020;;;3;52
30343;BME280;17145;49.902;8.680;'2023-01-31 04:28:56';101030;;;3;52
30343;BME280;17145;49.902;8.680;'2023-01-31 04:31:28';101030;;;3;52
30343;BME280;17145;49.902;8.680;'2023-01-31 04:34:00';101030;;;3;52
30343;BME280;17145;49.902;8.680;'2023-01-31 04:36:35';101040;;;3;52
30343;BME280;17145;49.902;8.680;'2023-01-31 04:39:12';101040;;;3;52
30343;BME280;17145;49.902;8.680;'2023-01-31 04:41:49';101040;;;3;52
30343;BME280;17145;49.902;8.680;'2023-01-31 04:44:23';101030;;;3;52
30343;BME280;17145;49.902;8.680;'2023-01-31 04:46:58';101030;;;3;52
30343;BME280;17145;49.902;8.680;'2023-01-31 04:49:28';101040;;;3;52
30343;BME280;17145;49.902;8.680;'2023-01-31 04:52:02';101030;;;3;52
30343;BME280;17145;49.902;8.680;'2023-01-31 04:54:35';101030;;;3;52
30343;BME280;17145;49.902;8.680;'2023-01-31 04:57:10';101030;;;2;52
30343;BME280;17145;49.902;8.680;'2023-01-31 04:59:42';101030;;;3;52
30343;BME280;17145;49.902;8.680;'2023-01-31 05:02:13';101040;;;3;52
30343;BME280;17145;49.902;8.680;'2023-01-31 05:04:46';101040;;;3;52
30343;BME280;17145;49.902;8.680;'2023-01-31 05:07:14';101040;;;3;52
30343;BME280;17145;49.902;8.680;'2023-01-31 05:09:41';101040;;;3;52
30343;BME280;17145;49.902;8.680;'2023-01-31 05:12:12';101040;;;3;51
30343;BME280;17145;49.902;8.680;'2023-01-31 05:14:40';101040;;;3;51
30343;BME280;17145;49.902;8.680;'2023-01-31 05:17:08';101040;;;3;51
30343;BME280;17145;49.902;8.680;'2023-01-31 05:19:35';101040;;;3;51
30343;BME280;17145;49.902;8.680;'2023-01-31 05:22:03';101040;;;3;52
30343;BME280;17145;49.902;8.680;'2023-01-31 05:24:30';101040;;;3;51
30343;BME280;17145;49.902;8.680;'2023-01-31 05:26:57';101040;;;3;51
30343;BME280;17145;49.902;8.680;'2023-01-31 05:29:25';101030;;;3;52
30343;BME280;17145;49.902;8.680;'2023-01-31 05:31:52';101030;;;3;52
30343;BME280;17145;49.902;8.680;'2023-01-31 05:34:20';101030;;;3;52
30343;BME280;17145;49.902;8.680;'2023-01-31 05:36:47';101020;;;3;52
30343;BME280;17145;49.902;8.680;'2023-01-31 05:39:15';101020;;;3;52
30343;BME280;17145;49.902;8.680;'2023-01-31 05:41:42';101030;;;2;52
30343;BME280;17145;49.902;8.680;'2023-01-31 05:44:10';101030;;;2;52
30343;BME280;17145;49.902;8.680;'2023-01-31 05:46:37';101020;;;2;52
30343;BME280;17145;49.902;8.680;'2023-01-31 05:49:05';101020;;;2;52
30343;BME280;17145;49.902;8.680;'2023-01-31 05:51:32';101010;;;2;52
30343;BME280;17145;49.902;8.680;'2023-01-31 05:54:00';101010;;;2;52
30343;BME280;17145;49.902;8.680;'2023-01-31 05:56:27';100990;;;3;52
30343;BME280;17145;49.902;8.680;'2023-01-31 05:58:55';100990;;;2;52
30343;BME280;17145;49.902;8.680;'2023-01-31 06:01:23';100990;;;3;52
30343;BME280;17145;49.902;8.680;'2023-01-31 06:03:51';100980;;;2;51
30343;BME280;17145;49.902;8.680;'2023-01-31 06:06:18';100990;;;3;51
30343;BME280;17145;49.902;8.680;'2023-01-31 06:08:45';100990;;;3;51
30343;BME280;17145;49.902;8.680;'2023-01-31 06:11:13';100990;;;3;51
30343;BME280;17145;49.902;8.680;'2023-01-31 06:13:40';100990;;;3;51
30343;BME280;17145;49.902;8.680;'2023-01-31 06:16:09';100990;;;3;51
30343;BME280;17145;49.902;8.680;'2023-01-31 06:18:38';101000;;;2;51
30343;BME280;17145;49.902;8.680;'2023-01-31 06:21:06';101000;;;2;51
30343;BME280;17145;49.902;8.680;'2023-01-31 06:23:34';100990;;;2;52
30343;BME280;17145;49.902;8.680;'2023-01-31 06:26:02';101000;;;2;52
30343;BME280;17145;49.902;8.680;'2023-01-31 06:28:30';101000;;;2;52
30343;BME280;17145;49.902;8.680;'2023-01-31 06:31:03';101000;;;2;52
30343;BME280;17145;49.902;8.680;'2023-01-31 06:33:30';100990;;;2;52
30343;BME280;17145;49.902;8.680;'2023-01-31 06:35:57';100990;;;2;51
30343;BME280;17145;49.902;8.680;'2023-01-31 06:38:25';100990;;;2;52
30343;BME280;17145;49.902;8.680;'2023-01-31 06:40:52';100990;;;2;52
30343;BME280;17145;49.902;8.680;'2023-01-31 06:43:20';100990;;;2;52
30343;BME280;17145;49.902;8.680;'2023-01-31 06:45:48';100980;;;3;51
30343;BME280;17145;49.902;8.680;'2023-01-31 06:48:15';100980;;;2;51
30343;BME280;17145;49.902;8.680;'2023-01-31 06:50:42';100980;;;2;51
30343;BME280;17145;49.902;8.680;'2023-01-31 06:53:09';100980;;;3;51
30343;BME280;17145;49.902;8.680;'2023-01-31 06:55:37';100990;;;2;52
30343;BME280;17145;49.902;8.680;'2023-01-31 06:58:04';100990;;;2;52
30343;BME280;17145;49.902;8.680;'2023-01-31 07:00:32';101000;;;2;53
30343;BME280;17145;49.902;8.680;'2023-01-31 07:02:59';100990;;;2;52
30343;BME280;17145;49.902;8.680;'2023-01-31 07:05:27';100990;;;2;52
30343;BME280;17145;49.902;8.680;'2023-01-31 07:07:54';100990;;;2;52
30343;BME280;17145;49.902;8.680;'2023-01-31 07:10:22';100990;;;2;52
30343;BME280;17145;49.902;8.680;'2023-01-31 07:12:49';100980;;;2;52
30343;BME280;17145;49.902;8.680;'2023-01-31 07:15:16';100990;;;2;52
30343;BME280;17145;49.902;8.680;'2023-01-31 07:17:44';100980;;;2;52
30343;BME280;17145;49.902;8.680;'2023-01-31 07:20:12';100980;;;2;52
30343;BME280;17145;49.902;8.680;'2023-01-31 07:22:40';100990;;;2;52
30343;BME280;17145;49.902;8.680;'2023-01-31 07:25:08';100990;;;2;52
30343;BME280;17145;49.902;8.680;'2023-01-31 07:27:36';100980;;;2;52
30343;BME280;17145;49.902;8.680;'2023-01-31 07:30:04';100980;;;2;52
30343;BME280;17145;49.902;8.680;'2023-01-31 07:32:31';100990;;;2;52
30343;BME280;17145;49.902;8.680;'2023-01-31 07:34:58';100980;;;2;53
30343;BME280;17145;49.902;8.680;'2023-01-31 07:37:26';100990;;;2;53
30343;BME280;17145;49.902;8.680;'2023-01-31 07:39:53';100980;;;2;53
30343;BME280;17145;49.902;8.680;'2023-01-31 07:42:20';100980;;;2;53
30343;BME280;17145;49.902;8.680;'2023-01-31 07:44:48';100980;;;2;52
30343;BME280;17145;49.902;8.680;'2023-01-31 07:47:15';100980;;;2;52
30343;BME280;17145;49.902;8.680;'2023-01-31 07:49:43';100980;;;2;52
30343;BME280;17145;49.902;8.680;'2023-01-31 07:52:10';100990;;;2;52
30343;BME280;17145;49.902;8.680;'2023-01-31 07:54:38';101000;;;2;53
30343;BME280;17145;49.902;8.680;'2023-01-31 07:57:05';101000;;;2;53
30343;BME280;17145;49.902;8.680;'2023-01-31 07:59:32';101010;;;2;53
30343;BME280;17145;49.902;8.680;'2023-01-31 08:02:00';101010;;;2;53
30343;BME280;17145;49.902;8.680;'2023-01-31 08:04:27';101010;;;2;53
30343;BME280;17145;49.902;8.680;'2023-01-31 08:06:55';101010;;;2;53
30343;BME280;17145;49.902;8.680;'2023-01-31 08:09:22';101010;;;2;53
30343;BME280;17145;49.902;8.680;'2023-01-31 08:11:49';101010;;;2;52
30343;BME280;17145;49.902;8.680;'2023-01-31 08:14:17';101010;;;2;53
30343;BME280;17145;49.902;8.680;'2023-01-31 08:16:44';101020;;;2;52
30343;BME280;17145;49.902;8.680;'2023-01-31 08:19:12';101020;;;2;53
30343;BME280;17145;49.902;8.680;'2023-01-31 08:21:40';101020;;;2;52
30343;BME280;17145;49.902;8.680;'2023-01-31 08:24:07';101020;;;3;52
30343;BME280;17145;49.902;8.680;'2023-01-31 08:26:35';101020;;;3;52
30343;BME280;17145;49.902;8.680;'2023-01-31 08:29:02';101020;;;2;52
30343;BME280;17145;49.902;8.680;'2023-01-31 08:31:30';101010;;;3;52
30343;BME280;17145;49.902;8.680;'2023-01-31 08:33:58';101020;;;2;53
30343;BME280;17145;49.902;8.680;'2023-01-31 08:36:25';101030;;;1;55
30343;BME280;17145;49.902;8.680;'2023-01-31 08:38:55';101030;;;2;54
30343;BME280;17145;49.902;8.680;'2023-01-31 08:41:22';101030;;;2;54
30343;BME280;17145;49.902;8.680;'2023-01-31 08:43:50';101030;;;2;54
30343;BME280;17145;49.902;8.680;'2023-01-31 08:46:18';101040;;;2;54
30343;BME280;17145;49.902;8.680;'2023-01-31 08:48:46';101040;;;2;54
30343;BME280;17145;49.902;8.680;'2023-01-31 08:51:13';101040;;;2;54
30343;BME280;17145;49.902;8.680;'2023-01-31 08:53:40';101040;;;2;54
30343;BME280;17145;49.902;8.680;'2023-01-31 08:56:11';101040;;;2;54
30343;BME280;17145;49.902;8.680;'2023-01-31 08:58:39';101040;;;2;54
30343;BME280;17145;49.902;8.680;'2023-01-31 09:01:11';101040;;;2;54
30343;BME280;17145;49.902;8.680;'2023-01-31 09:03:39';101050;;;2;54
30343;BME280;17145;49.902;8.680;'2023-01-31 09:06:09';101050;;;2;54
30343;BME280;17145;49.902;8.680;'2023-01-31 09:08:37';101050;;;2;54
30343;BME280;17145;49.902;8.680;'2023-01-31 09:11:05';101050;;;2;54
30343;BME280;17145;49.902;8.680;'2023-01-31 09:13:32';101050;;;2;54
30343;BME280;17145;49.902;8.680;'2023-01-31 09:16:00';101050;;;2;55
30343;BME280;17145;49.902;8.680;'2023-01-31 09:18:27';101050;;;0;57
30343;BME280;17145;49.902;8.680;'2023-01-31 09:20:56';101050;;;2;56
30343;BME280;17145;49.902;8.680;'2023-01-31 09:23:23';101050;;;2;56
30343;BME280;17145;49.902;8.680;'2023-01-31 09:25:51';101050;;;2;55
30343;BME280;17145;49.902;8.680;'2023-01-31 09:28:18';101050;;;2;55
30343;BME280;17145;49.902;8.680;'2023-01-31 09:30:45';101060;;;2;54
30343;BME280;17145;49.902;8.680;'2023-01-31 09:33:13';101060;;;2;55
30343;BME280;17145;49.902;8.680;'2023-01-31 09:35:40';101050;;;2;54
30343;BME280;17145;49.902;8.680;'2023-01-31 09:38:07';101050;;;2;54
30343;BME280;17145;49.902;8.680;'2023-01-31 09:40:35';101060;;;2;54
30343;BME280;17145;49.902;8.680;'2023-01-31 09:43:02';101060;;;2;55
30343;BME280;17145;49.902;8.680;'2023-01-31 09:45:30';101060;;;2;55
30343;BME280;17145;49.902;8.680;'2023-01-31 09:47:59';101060;;;2;55
30343;BME280;17145;49.902;8.680;'2023-01-31 09:50:29';101050;;;2;55
30343;BME280;17145;49.902;8.680;'2023-01-31 09:52:58';101050;;;2;54
30343;BME280;17145;49.902;8.680;'2023-01-31 09:55:26';101050;;;2;54
30343;BME280;17145;49.902;8.680;'2023-01-31 09:57:54';101060;;;2;55
30343;BME280;17145;49.902;8.680;'2023-01-31 10:00:22';101060;;;2;55
30343;BME280;17145;49.902;8.680;'2023-01-31 10:02:52';101050;;;2;54
30343;BME280;17145;49.902;8.680;'2023-01-31 10:05:20';101060;;;2;55
30343;BME280;17145;49.902;8.680;'2023-01-31 10:07:47';101060;;;2;55
30343;BME280;17145;49.902;8.680;'2023-01-31 10:10:16';101050;;;1;57
30343;BME280;17145;49.902;8.680;'2023-01-31 10:12:43';101040;;;2;56
30343;BME280;17145;49.902;8.680;'2023-01-31 10:15:11';101040;;;2;55
30343;BME280;17145;49.902;8.680;'2023-01-31 10:17:40';101020;;;2;54
30343;BME280;17145;49.902;8.680;'2023-01-31 10:20:08';101030;;;2;54
30343;BME280;17145;49.902;8.680;'2023-01-31 10:22:36';101030;;;2;54
30343;BME280;17145;49.902;8.680;'2023-01-31 10:25:04';101020;;;2;54
30343;BME280;17145;49.902;8.680;'2023-01-31 10:27:31';101020;;;3;54
30343;BME280;17145;49.902;8.680;'2023-01-31 10:29:59';101040;;;2;55
30343;BME280;17145;49.902;8.680;'2023-01-31 10:32:26';101060;;;2;56
30343;BME280;17145;49.902;8.680;'2023-01-31 10:34:54';101040;;;2;56
30343;BME280;17145;49.902;8.680;'2023-01-31 10:37:21';101040;;;2;55
30343;BME280;17145;49.902;8.680;'2023-01-31 10:39:48';101050;;;3;54
30343;BME280;17145;49.902;8.680;'2023-01-31 10:42:22';101040;;;2;55
30343;BME280;17145;49.902;8.680;'2023-01-31 10:44:59';101040;;;3;54
30343;BME280;17145;49.902;8.680;'2023-01-31 10:47:30';101040;;;3;53
30343;BME280;17145;49.902;8.680;'2023-01-31 10:50:02';101040;;;3;53
30343;BME280;17145;49.902;8.680;'2023-01-31 10:52:30';101040;;;3;52
30343;BME280;17145;49.902;8.680;'2023-01-31 10:54:59';101050;;;3;53
30343;BME280;17145;49.902;8.680;'2023-01-31 10:57:38';101040;;;3;53
30343;BME280;17145;49.902;8.680;'2023-01-31 11:00:17';101030;;;3;53
30343;BME280;17145;49.902;8.680;'2023-01-31 11:03:06';101020;;;3;53
30343;BME280;17145;49.902;8.680;'2023-01-31 11:05:39';101020;;;3;53
30343;BME280;17145;49.902;8.680;'2023-01-31 11:08:15';101010;;;3;54
30343;BME280;17145;49.902;8.680;'2023-01-31 11:10:47';101000;;;3;53
30343;BME280;17145;49.902;8.680;'2023-01-31 11:13:22';100980;;;3;54
30343;BME280;17145;49.902;8.680;'2023-01-31 11:15:55';101000;;;3;55
30343;BME280;17145;49.902;8.680;'2023-01-31 11:18:26';100990;;;2;55
30343;BME280;17145;49.902;8.680;'2023-01-31 11:20:58';100990;;;3;55
30343;BME280;17145;49.902;8.680;'2023-01-31 11:23:32';101010;;;2;56
30343;BME280;17145;49.902;8.680;'2023-01-31 11:26:03';101020;;;2;58
30343;BME280;17145;49.902;8.680;'2023-01-31 11:28:39';101020;;;2;58
30343;BME280;17145;49.902;8.680;'2023-01-31 11:31:15';101030;;;2;58
30343;BME280;17145;49.902;8.680;'2023-01-31 11:33:51';101010;;;2;60
30343;BME280;17145;49.902;8.680;'2023-01-31 11:36:27';101010;;;2;59
30343;BME280;17145;49.902;8.680;'2023-01-31 11:39:01';101010;;;1;61
30343;BME280;17145;49.902;8.680;'2023-01-31 11:41:40';101000;;;2;59
30343;BME280;17145;49.902;8.680;'2023-01-31 11:44:19';100990;;;2;58
30343;BME280;17145;49.902;8.680;'2023-01-31 11:46:47';101000;;;3;57
30343;BME280;17145;49.902;8.680;'2023-01-31 11:49:15';101000;;;2;59
30343;BME280;17145;49.902;8.680;'2023-01-31 11:51:59';100980;;;2;59
30343;BME280;17145;49.902;8.680;'2023-01-31 11:54:40';100960;;;3;58
30343;BME280;17145;49.902;8.680;'2023-01-31 11:57:08';100940;;;2;58
30343;BME280;17145;49.902;8.680;'2023-01-31 11:59:39';100940;;;2;58
30343;BME280;17145;49.902;8.680;'2023-01-31 12:02:17';100920;;;3;57
30343;BME280;17145;49.902;8.680;'2023-01-31 12:04:45';100910;;;3;57
30343;BME280;17145;49.902;8.680;'2023-01-31 12:07:13';100920;;;2;59
30343;BME280;17145;49.902;8.680;'2023-01-31 12:09:46';100920;;;3;58
30343;BME280;17145;49.902;8.680;'2023-01-31 12:12:14';100940;;;3;56
30343;BME280;17145;49.902;8.680;'2023-01-31 12:14:41';100920;;;3;56
30343;BME280;17145;49.902;8.680;'2023-01-31 12:17:16';100940;;;3;56
30343;BME280;17145;49.902;8.680;'2023-01-31 12:19:46';100920;;;3;57
30343;BME280;17145;49.902;8.680;'2023-01-31 12:22:22';100910;;;3;57
30343;BME280;17145;49.902;8.680;'2023-01-31 12:24:50';100910;;;2;58
30343;BME280;17145;49.902;8.680;'2023-01-31 12:27:26';100910;;;3;57
30343;BME280;17145;49.902;8.680;'2023-01-31 12:29:55';100900;;;3;56
30343;BME280;17145;49.902;8.680;'2023-01-31 12:32:25';100890;;;3;56
30343;BME280;17145;49.902;8.680;'2023-01-31 12:34:56';100900;;;3;56
30343;BME280;17145;49.902;8.680;'2023-01-31 12:37:24';100910;;;3;57
30343;BME280;17145;49.902;8.680;'2023-01-31 12:39:57';100890;;;3;56
30343;BME280;17145;49.902;8.680;'2023-01-31 12:42:25';100880;;;3;55
30343;BME280;17145;49.902;8.680;'2023-01-31 12:44:57';100890;;;3;56
30343;BME280;17145;49.902;8.680;'2023-01-31 12:47:32';100880;;;3;55
30343;BME280;17145;49.902;8.680;'2023-01-31 12:50:01';100880;;;3;56
30343;BME280;17145;49.902;8.680;'2023-01-31 12:52:31';100880;;;2;57
30343;BME280;17145;49.902;8.680;'2023-01-31 12:55:01';100880;;;3;56
30343;BME280;17145;49.902;8.680;'2023-01-31 12:57:33';100850;;;3;56
30343;BME280;17145;49.902;8.680;'2023-01-31 13:00:05';100840;;;3;56
30343;BME280;17145;49.902;8.680;'2023-01-31 13:02:38';100830;;;3;57
30343;BME280;17145;49.902;8.680;'2023-01-31 13:05:12';100840;;;3;57
30343;BME280;17145;49.902;8.680;'2023-01-31 13:07:43';100840;;;3;57
30343;BME280;17145;49.902;8.680;'2023-01-31 13:10:29';100850;;;2;57
30343;BME280;17145;49.902;8.680;'2023-01-31 13:12:59';100840;;;3;56
30343;BME280;17145;49.902;8.680;'2023-01-31 13:15:28';100820;;;3;57
30343;BME280;17145;49.902;8.680;'2023-01-31 13:17:57';100820;;;3;57
30343;BME280;17145;49.902;8.680;'2023-01-31 13:20:36';100800;;;2;57
30343;BME280;17145;49.902;8.680;'2023-01-31 13:23:19';100790;;;3;56
30343;BME280;17145;49.902;8.680;'2023-01-31 13:25:58';100800;;;3;55
30343;BME280;17145;49.902;8.680;'2023-01-31 13:28:36';100810;;;3;56
30343;BME280;17145;49.902;8.680;'2023-01-31 13:31:19';100820;;;3;57
30343;BME280;17145;49.902;8.680;'2023-01-31 13:34:02';100810;;;3;56
30343;BME280;17145;49.902;8.680;'2023-01-31 13:36:43';100780;;;3;56
30343;BME280;17145;49.902;8.680;'2023-01-31 13:39:19';100780;;;4;55
30343;BME280;17145;49.902;8.680;'2023-01-31 13:41:59';100790;;;3;57
30343;BME280;17145;49.902;8.680;'2023-01-31 13:44:41';100780;;;3;58
30343;BME280;17145;49.902;8.680;'2023-01-31 13:47:26';100760;;;3;56
30343;BME280;17145;49.902;8.680;'2023-01-31 13:50:07';100760;;;4;55
30343;BME280;17145;49.902;8.680;'2023-01-31 13:52:46';100760;;;4;54
30343;BME280;17145;49.902;8.680;'2023-01-31 13:55:23';100780;;;4;54
30343;BME280;17145;49.902;8.680;'2023-01-31 13:58:03';100770;;;4;54
30343;BME280;17145;49.902;8.680;'2023-01-31 14:00:41';100760;;;4;54
30343;BME280;17145;49.902;8.680;'2023-01-31 14:03:27';100750;;;4;54
30343;BME280;17145;49.902;8.680;'2023-01-31 14:05:58';100760;;;4;54
30343;BME280;17145;49.902;8.680;'2023-01-31 14:08:29';100740;;;3;54
30343;BME280;17145;49.902;8.680;'2023-01-31 14:11:01';100740;;;4;54
30343;BME280;17145;49.902;8.680;'2023-01-31 14:13:32';100740;;;4;55
30343;BME280;17145;49.902;8.680;'2023-01-31 14:16:07';100720;;;3;55
30343;BME280;17145;49.902;8.680;'2023-01-31 14:18:36';100700;;;4;55
30343;BME280;17145;49.902;8.680;'2023-01-31 14:21:07';100710;;;4;54
30343;BME280;17145;49.902;8.680;'2023-01-31 14:23:40';100730;;;3;55
30343;BME280;17145;49.902;8.680;'2023-01-31 14:26:12';100710;;;3;55
30343;BME280;17145;49.902;8.680;'2023-01-31 14:28:46';100710;;;3;55
30343;BME280;17145;49.902;8.680;'2023-01-31 14:31:19';100700;;;4;54
30343;BME280;17145;49.902;8.680;'2023-01-31 14:33:53';100700;;;3;55
30343;BME280;17145;49.902;8.680;'2023-01-31 14:36:28';100700;;;4;54
30343;BME280;17145;49.902;8.680;'2023-01-31 14:39:00';100700;;;3;55
30343;BME280;17145;49.902;8.680;'2023-01-31 14:41:30';100690;;;4;54
30343;BME280;17145;49.902;8.680;'2023-01-31 14:43:59';100700;;;2;57
30343;BME280;17145;49.902;8.680;'2023-01-31 14:46:33';100700;;;3;56
30343;BME280;17145;49.902;8.680;'2023-01-31 14:49:05';100710;;;3;57
30343;BME280;17145;49.902;8.680;'2023-01-31 14:51:39';100700;;;3;56
30343;BME280;17145;49.902;8.680;'2023-01-31 14:54:15';100710;;;2;58
30343;BME280;17145;49.902;8.680;'2023-01-31 14:56:49';100710;;;3;57
30343;BME280;17145;49.902;8.680;'2023-01-31 14:59:21';100710;;;4;56
30343;BME280;17145;49.902;8.680;'2023-01-31 15:01:50';100710;;;4;55
30343;BME280;17145;49.902;8.680;'2023-01-31 15:04:23';100710;;;3;57
30343;BME280;17145;49.902;8.680;'2023-01-31 15:07:01';100720;;;3;57
30343;BME280;17145;49.902;8.680;'2023-01-31 15:09:30';100700;;;3;58
30343;BME280;17145;49.902;8.680;'2023-01-31 15:12:00';100710;;;3;57
30343;BME280;17145;49.902;8.680;'2023-01-31 15:14:36';100700;;;4;56
30343;BME280;17145;49.902;8.680;'2023-01-31 15:19:46';100710;;;4;56
30343;BME280;17145;49.902;8.680;'2023-01-31 15:22:16';100710;;;4;56
30343;BME280;17145;49.902;8.680;'2023-01-31 15:24:56';100730;;;4;56
30343;BME280;17145;49.902;8.680;'2023-01-31 15:27:27';100720;;;4;56
30343;BME280;17145;49.902;8.680;'2023-01-31 15:30:04';100710;;;3;57
30343;BME280;17145;49.902;8.680;'2023-01-31 15:35:13';100710;;;3;59
30343;BME280;17145;49.902;8.680;'2023-01-31 15:37:50';100700;;;4;58
30343;BME280;17145;49.902;8.680;'2023-01-31 15:40:26';100710;;;3;58
30343;BME280;17145;49.902;8.680;'2023-01-31 15:43:13';100710;;;4;57
30343;BME280;17145;49.902;8.680;'2023-01-31 15:46:01';100710;;;4;57
30343;BME280;17145;49.902;8.680;'2023-01-31 15:48:47';100700;;;4;57
30343;BME280;17145;49.902;8.680;'2023-01-31 15:51:26';100700;;;4;57